Time;durP1;ratioP1;P1;durP2;ratioP2;P2;SDS_P1;SDS_P2;PMS_P1;PMS_P2;Temp;Humidity;BMP_temperature;BMP_pressure;BME280_temperature;BME280_humidity;BME280_pressure;Samples;Min_cycle;Max_cycle;Signal;HPM_P1;HPM_P2
2023/08/24 00:01:24;;;;;;;12.55;6.53;;;;;;;26.05;100.00;96450.59;6242845;23;20045;-82
2023/08/24 00:03:51;;;;;;;8.95;6.05;;;;;;;25.57;100.00;96449.47;6191867;23;20004;-82
2023/08/24 00:06:17;;;;;;;8.20;6.35;;;;;;;25.23;100.00;96460.28;6216322;23;20050;-83
2023/08/24 00:08:47;;;;;;;10.63;7.90;;;;;;;24.95;100.00;96447.75;6190854;23;20004;-83
2023/08/24 00:11:14;;;;;;;11.27;6.32;;;;;;;24.96;100.00;96446.66;6215242;23;20034;-82
2023/08/24 00:13:49;;;;;;;13.35;6.70;;;;;;;24.80;100.00;96455.56;6191084;23;20012;-82
2023/08/24 00:16:16;;;;;;;10.13;7.10;;;;;;;24.61;100.00;96449.56;6190790;23;20075;-82
2023/08/24 00:18:42;;;;;;;11.52;7.57;;;;;;;24.87;100.00;96448.13;6215674;23;20024;-81
2023/08/24 00:21:08;;;;;;;13.27;6.80;;;;;;;24.89;100.00;96454.09;6215586;23;20499;-82
2023/08/24 00:23:34;;;;;;;13.57;6.82;;;;;;;25.22;100.00;96452.44;6216768;23;20016;-82
2023/08/24 00:25:59;;;;;;;10.13;6.80;;;;;;;24.96;100.00;96451.25;6216553;23;20000;-82
2023/08/24 00:28:39;;;;;;;11.02;6.53;;;;;;;25.15;100.00;96439.16;6190968;23;20000;-82
2023/08/24 00:31:04;;;;;;;8.60;5.90;;;;;;;25.43;100.00;96437.44;6242020;23;20000;-81
2023/08/24 00:33:30;;;;;;;11.15;6.70;;;;;;;25.34;100.00;96424.38;6216412;23;20008;-82
2023/08/24 00:36:02;;;;;;;11.63;7.47;;;;;;;24.96;100.00;96435.09;6191672;23;20036;-82
2023/08/24 00:38:28;;;;;;;8.85;7.53;;;;;;;25.02;100.00;96431.44;6190639;23;20016;-82
2023/08/24 00:40:55;;;;;;;11.18;7.50;;;;;;;24.74;100.00;96435.00;6215860;23;20087;-82
2023/08/24 00:43:24;;;;;;;10.70;7.50;;;;;;;25.10;100.00;96434.50;6215319;23;20091;-82
2023/08/24 00:45:51;;;;;;;11.40;7.05;;;;;;;24.81;100.00;96428.38;6191100;23;20032;-82
2023/08/24 00:48:17;;;;;;;9.65;7.68;;;;;;;24.92;100.00;96426.69;6190489;23;20011;-82
2023/08/24 00:50:43;;;;;;;9.70;7.22;;;;;;;24.87;100.00;96432.00;6216458;23;20038;-82
2023/08/24 00:53:10;;;;;;;9.70;6.95;;;;;;;24.91;100.00;96428.56;6215907;23;20011;-82
2023/08/24 00:55:36;;;;;;;9.73;7.30;;;;;;;24.63;100.00;96434.03;6215614;23;20023;-82
2023/08/24 00:58:03;;;;;;;10.15;7.38;;;;;;;24.74;100.00;96432.31;6189453;23;20066;-82
2023/08/24 01:00:29;;;;;;;11.45;7.50;;;;;;;24.13;100.00;96427.47;6214254;23;20444;-82
2023/08/24 01:02:55;;;;;;;12.20;7.75;;;;;;;24.33;100.00;96427.03;6189911;23;20101;-82
2023/08/24 01:05:20;;;;;;;11.30;7.68;;;;;;;24.47;100.00;96430.25;6190744;23;20447;-82
2023/08/24 01:07:47;;;;;;;11.70;7.97;;;;;;;24.56;100.00;96428.00;6215465;23;20008;-82
2023/08/24 01:10:13;;;;;;;11.32;8.77;;;;;;;24.07;100.00;96415.00;6190182;23;20011;-82
2023/08/24 01:13:15;;;;;;;10.50;8.13;;;;;;;24.33;100.00;96423.53;6190172;23;20004;-82
2023/08/24 01:15:41;;;;;;;11.90;7.40;;;;;;;24.44;100.00;96423.47;6191172;23;20011;-82
2023/08/24 01:18:13;;;;;;;12.60;7.80;;;;;;;24.28;100.00;96418.88;6215390;23;20004;-82
2023/08/24 01:20:41;;;;;;;11.82;7.90;;;;;;;23.85;100.00;96422.09;6215333;23;20455;-82
2023/08/24 01:23:41;;;;;;;9.55;7.85;;;;;;;24.15;100.00;96411.13;6190529;23;20062;-82
2023/08/24 01:26:14;;;;;;;9.35;7.43;;;;;;;24.27;100.00;96402.97;6169803;23;20012;-83
2023/08/24 01:28:44;;;;;;;9.77;7.93;;;;;;;23.85;100.00;96406.78;6189761;23;20573;-82
2023/08/24 01:31:10;;;;;;;9.57;7.38;;;;;;;23.90;100.00;96398.00;6189733;23;20000;-82
2023/08/24 01:33:36;;;;;;;11.20;8.32;;;;;;;24.03;100.00;96388.84;6215044;23;20015;-82
2023/08/24 01:36:02;;;;;;;13.60;7.80;;;;;;;23.96;100.00;96386.31;6214997;23;20070;-81
2023/08/24 01:38:29;;;;;;;10.10;8.27;;;;;;;23.98;100.00;96387.72;6190080;23;20050;-82
2023/08/24 01:41:13;;;;;;;12.55;7.93;;;;;;;23.83;100.00;96389.28;6189703;23;20058;-82
2023/08/24 01:43:42;;;;;;;11.82;8.00;;;;;;;23.82;100.00;96384.97;6189528;23;20004;-82
2023/08/24 01:46:08;;;;;;;10.95;7.60;;;;;;;23.83;100.00;96383.91;6190960;23;20012;-82
2023/08/24 01:48:36;;;;;;;13.60;7.60;;;;;;;24.00;100.00;96379.41;6190014;23;20008;-83
2023/08/24 01:51:02;;;;;;;11.90;8.18;;;;;;;23.98;100.00;96379.66;6189778;23;20428;-82
2023/08/24 01:53:30;;;;;;;12.98;8.07;;;;;;;24.28;100.00;96385.78;6215365;23;20366;-83
2023/08/24 01:55:56;;;;;;;10.43;7.75;;;;;;;24.41;100.00;96389.03;6189347;23;20062;-82
2023/08/24 01:58:27;;;;;;;11.88;7.75;;;;;;;24.49;100.00;96389.69;6189765;23;20000;-82
2023/08/24 02:00:53;;;;;;;9.73;8.10;;;;;;;24.50;100.00;96397.50;6215827;23;20057;-82
2023/08/24 02:03:19;;;;;;;11.55;7.70;;;;;;;24.53;100.00;96388.97;6218302;23;20012;-82
2023/08/24 02:05:45;;;;;;;11.25;8.70;;;;;;;24.12;100.00;96390.91;6192554;23;20322;-82
2023/08/24 02:08:10;;;;;;;9.65;7.90;;;;;;;23.98;100.00;96381.53;6217514;23;20008;-82
2023/08/24 02:10:36;;;;;;;9.75;8.50;;;;;;;23.86;100.00;96383.44;6217350;23;20016;-82
2023/08/24 02:13:03;;;;;;;9.23;8.10;;;;;;;23.99;100.00;96380.47;6216852;23;20463;-82
2023/08/24 02:15:28;;;;;;;9.82;7.95;;;;;;;24.18;100.00;96383.78;6192974;23;20090;-82
2023/08/24 02:17:55;;;;;;;11.63;8.30;;;;;;;24.18;100.00;96376.53;6192863;23;20004;-82
2023/08/24 02:20:22;;;;;;;16.33;8.43;;;;;;;24.29;100.00;96374.81;6192572;23;20050;-82
2023/08/24 02:22:47;;;;;;;9.43;7.05;;;;;;;24.02;100.00;96374.59;6192495;23;20004;-81
2023/08/24 02:25:13;;;;;;;10.43;6.53;;;;;;;24.08;100.00;96376.34;6192118;23;20329;-82
2023/08/24 02:27:39;;;;;;;10.27;6.85;;;;;;;23.96;100.00;96379.06;6192308;23;20007;-82
2023/08/24 02:30:05;;;;;;;8.95;6.15;;;;;;;23.99;100.00;96381.28;6216826;23;20317;-83
2023/08/24 02:32:31;;;;;;;9.52;6.13;;;;;;;23.85;100.00;96385.31;6192160;23;19996;-82
2023/08/24 02:34:57;;;;;;;11.10;6.50;;;;;;;23.81;100.00;96383.31;6191894;23;20008;-82
2023/08/24 02:37:22;;;;;;;8.85;6.18;;;;;;;23.84;100.00;96388.22;6191404;23;20347;-82
2023/08/24 02:39:48;;;;;;;10.00;6.15;;;;;;;23.66;100.00;96392.69;6192031;23;20000;-82
2023/08/24 02:42:15;;;;;;;12.10;6.57;;;;;;;24.05;100.00;96398.31;6185783;23;20093;-82
2023/08/24 02:44:40;;;;;;;9.23;5.82;;;;;;;23.97;100.00;96398.69;6191127;23;20004;-82
2023/08/24 02:47:10;;;;;;;7.75;5.85;;;;;;;23.71;100.00;96400.88;6242079;23;20011;-82
2023/08/24 02:49:36;;;;;;;9.48;6.25;;;;;;;23.61;100.00;96399.81;6217570;23;20008;-82
2023/08/24 02:52:02;;;;;;;17.08;6.65;;;;;;;23.82;100.00;96399.22;6192390;23;20094;-82
2023/08/24 02:54:28;;;;;;;8.38;5.47;;;;;;;23.64;100.00;96394.81;6216148;23;20039;-82
2023/08/24 02:57:09;;;;;;;7.10;5.70;;;;;;;23.58;100.00;96400.31;6216662;23;20337;-82
2023/08/24 02:59:34;;;;;;;7.43;6.18;;;;;;;23.43;100.00;96398.94;6190994;23;20008;-82
2023/08/24 03:02:00;;;;;;;8.75;5.55;;;;;;;23.42;100.00;96396.50;6191164;23;20034;-82
2023/08/24 03:04:26;;;;;;;9.05;6.10;;;;;;;23.42;100.00;96391.94;6189862;23;20004;-82
2023/08/24 03:06:52;;;;;;;8.23;5.93;;;;;;;23.42;100.00;96388.44;6189369;23;20004;-82
2023/08/24 03:09:18;;;;;;;8.13;6.20;;;;;;;23.44;100.00;96383.63;6213096;23;20091;-82
2023/08/24 03:11:44;;;;;;;7.90;5.22;;;;;;;23.41;100.00;96384.94;6187995;23;20447;-82
2023/08/24 03:14:10;;;;;;;8.90;5.78;;;;;;;23.20;100.00;96385.53;6188519;23;20004;-82
2023/08/24 03:16:47;;;;;;;6.88;5.70;;;;;;;23.37;100.00;96381.06;6189279;23;20014;-82
2023/08/24 03:19:14;;;;;;;11.68;6.38;;;;;;;23.11;100.00;96379.75;6189412;23;20392;-82
2023/08/24 03:21:40;;;;;;;8.55;6.05;;;;;;;23.08;100.00;96382.88;6214027;23;20011;-82
2023/08/24 03:24:06;;;;;;;8.95;6.18;;;;;;;22.83;100.00;96378.53;6214333;23;20081;-82
2023/08/24 03:26:31;;;;;;;9.07;5.63;;;;;;;22.67;100.00;96381.09;6213956;23;20008;-82
2023/08/24 03:28:57;;;;;;;9.77;5.95;;;;;;;22.77;100.00;96375.97;6213889;23;20340;-82
2023/08/24 03:31:23;;;;;;;8.05;6.22;;;;;;;22.71;100.00;96375.06;6213372;23;20333;-82
2023/08/24 03:33:49;;;;;;;9.18;6.68;;;;;;;22.68;100.00;96378.19;6189552;23;20019;-82
2023/08/24 03:36:14;;;;;;;10.48;6.85;;;;;;;22.40;100.00;96381.53;6191346;23;20007;-82
2023/08/24 03:38:40;;;;;;;14.35;7.13;;;;;;;22.60;100.00;96383.88;6216572;23;20034;-82
2023/08/24 03:41:06;;;;;;;12.75;7.13;;;;;;;22.62;100.00;96379.13;6190061;23;20010;-82
2023/08/24 03:43:35;;;;;;;16.10;7.90;;;;;;;22.89;100.00;96379.47;6215433;23;20079;-82
2023/08/24 03:46:07;;;;;;;11.90;7.35;;;;;;;22.41;100.00;96379.69;6192074;23;19996;-82
2023/08/24 03:48:33;;;;;;;9.50;7.63;;;;;;;22.00;100.00;96373.22;6216572;23;20089;-82
2023/08/24 03:50:59;;;;;;;10.73;7.72;;;;;;;22.21;100.00;96358.56;6190918;23;20008;-82
2023/08/24 03:53:25;;;;;;;10.35;7.50;;;;;;;22.24;100.00;96356.22;6216307;23;20007;-82
2023/08/24 03:55:51;;;;;;;16.20;8.07;;;;;;;22.53;100.00;96361.72;6190374;23;20007;-82
2023/08/24 03:58:18;;;;;;;8.73;6.85;;;;;;;22.98;100.00;96359.34;6191058;23;20011;-82
2023/08/24 04:00:44;;;;;;;11.13;7.55;;;;;;;22.73;100.00;96361.41;6191032;23;19997;-82
2023/08/24 04:03:11;;;;;;;9.32;7.13;;;;;;;22.65;100.00;96359.88;6217092;23;20424;-82
2023/08/24 04:05:36;;;;;;;12.18;7.18;;;;;;;22.79;100.00;96360.47;6190962;23;20008;-82
2023/08/24 04:08:04;;;;;;;11.70;6.68;;;;;;;22.92;100.00;96360.25;6216053;23;20344;-82
2023/08/24 04:10:30;;;;;;;11.20;6.13;;;;;;;23.00;100.00;96356.41;6190898;23;20011;-83
2023/08/24 04:12:57;;;;;;;9.48;7.10;;;;;;;22.62;100.00;96360.34;6190754;23;20012;-82
2023/08/24 04:15:23;;;;;;;12.25;7.35;;;;;;;22.53;100.00;96353.69;6190591;23;19999;-82
2023/08/24 04:17:49;;;;;;;12.90;6.22;;;;;;;21.93;100.00;96345.72;6191199;23;20027;-82
2023/08/24 04:20:15;;;;;;;10.50;6.65;;;;;;;21.85;100.00;96338.84;6215492;23;20077;-83
2023/08/24 04:22:43;;;;;;;12.75;6.20;;;;;;;21.48;100.00;96349.63;6189925;23;20026;-82
2023/08/24 04:25:09;;;;;;;11.07;6.85;;;;;;;21.71;100.00;96348.13;6216591;23;20087;-82
2023/08/24 04:27:36;;;;;;;11.35;6.80;;;;;;;21.66;100.00;96340.75;6216037;23;20028;-82
2023/08/24 04:30:03;;;;;;;11.60;7.35;;;;;;;21.93;100.00;96345.72;6190730;23;20015;-82
2023/08/24 04:32:32;;;;;;;9.27;6.65;;;;;;;22.00;100.00;96344.63;6214645;23;20004;-83
2023/08/24 04:34:58;;;;;;;15.63;6.78;;;;;;;22.20;100.00;96341.66;6190415;23;20079;-83
2023/08/24 04:37:23;;;;;;;13.48;7.15;;;;;;;22.63;100.00;96334.34;6190641;23;20032;-83
2023/08/24 04:39:49;;;;;;;11.65;6.88;;;;;;;22.65;100.00;96333.09;6190906;23;20023;-82
2023/08/24 04:42:15;;;;;;;10.98;7.50;;;;;;;23.01;100.00;96336.59;6188750;23;20424;-83
2023/08/24 04:44:41;;;;;;;13.48;7.78;;;;;;;22.97;100.00;96341.63;6215831;23;19992;-82
2023/08/24 04:47:07;;;;;;;10.02;7.35;;;;;;;22.80;100.00;96338.81;6215730;23;20008;-83
2023/08/24 04:49:33;;;;;;;14.38;7.93;;;;;;;23.03;100.00;96337.16;6190520;23;20019;-82
2023/08/24 04:51:58;;;;;;;13.63;7.85;;;;;;;23.21;100.00;96341.59;6215217;23;20106;-82
2023/08/24 04:54:24;;;;;;;10.80;7.68;;;;;;;23.26;100.00;96333.63;6213638;23;20075;-82
2023/08/24 04:56:49;;;;;;;9.02;7.68;;;;;;;23.07;100.00;96335.63;6190495;23;20004;-82
2023/08/24 04:59:15;;;;;;;15.20;8.00;;;;;;;23.05;100.00;96332.38;6190337;23;20015;-83
2023/08/24 05:01:41;;;;;;;11.95;7.97;;;;;;;23.22;100.00;96333.28;6214636;23;20069;-82
2023/08/24 05:04:10;;;;;;;9.00;7.75;;;;;;;23.35;100.00;96326.03;6190345;23;20016;-82
2023/08/24 05:06:36;;;;;;;10.82;7.78;;;;;;;23.23;100.00;96318.81;6190135;23;20225;-82
2023/08/24 05:09:01;;;;;;;10.65;8.00;;;;;;;23.32;100.00;96315.78;6190237;23;20004;-83
2023/08/24 05:11:31;;;;;;;11.30;6.93;;;;;;;23.46;100.00;96314.44;6241691;23;20431;-82
2023/08/24 05:13:56;;;;;;;10.43;7.78;;;;;;;23.27;100.00;96306.56;6189752;23;20007;-82
2023/08/24 05:16:22;;;;;;;10.13;7.35;;;;;;;22.97;100.00;96297.88;6190212;23;20003;-82
2023/08/24 05:18:48;;;;;;;10.98;6.47;;;;;;;22.77;100.00;96299.06;6215245;23;20008;-83
2023/08/24 05:21:13;;;;;;;8.68;5.93;;;;;;;22.99;100.00;96306.50;6214448;23;20011;-83
2023/08/24 05:23:39;;;;;;;12.85;6.88;;;;;;;23.61;100.00;96309.38;6190083;23;20004;-82
2023/08/24 05:26:05;;;;;;;10.10;5.82;;;;;;;23.83;100.00;96309.53;6213683;23;20004;-82
2023/08/24 05:28:31;;;;;;;11.90;6.30;;;;;;;23.68;100.00;96307.38;6211567;23;20016;-82
2023/08/24 05:30:57;;;;;;;10.90;6.18;;;;;;;23.92;100.00;96309.97;6184073;23;20074;-82
2023/08/24 05:33:24;;;;;;;10.15;6.35;;;;;;;23.76;100.00;96301.63;6185456;23;20066;-82
2023/08/24 05:35:51;;;;;;;10.45;6.43;;;;;;;24.12;100.00;96306.81;6186253;23;20034;-81
2023/08/24 05:38:17;;;;;;;18.52;8.95;;;;;;;23.93;100.00;96309.69;6188398;23;20015;-84
2023/08/24 05:40:43;;;;;;;12.85;7.00;;;;;;;24.19;100.00;96304.78;6191203;23;20413;-83
2023/08/24 05:43:09;;;;;;;12.27;6.40;;;;;;;23.90;100.00;96295.94;6216024;23;20008;-83
2023/08/24 05:45:36;;;;;;;10.30;6.85;;;;;;;23.81;100.00;96308.97;6190926;23;20046;-83
2023/08/24 05:48:02;;;;;;;11.27;6.82;;;;;;;24.59;100.00;96291.19;6190889;23;20036;-83
2023/08/24 05:50:27;;;;;;;8.52;6.22;;;;;;;24.40;100.00;96289.78;6213609;23;20070;-80
2023/08/24 05:52:53;;;;;;;10.05;6.68;;;;;;;24.06;100.00;96288.97;6189897;23;20015;-81
2023/08/24 05:55:19;;;;;;;8.70;6.10;;;;;;;23.89;100.00;96284.41;6189120;23;20726;-81
2023/08/24 05:57:44;;;;;;;8.70;6.07;;;;;;;24.16;100.00;96283.78;6189292;23;20004;-81
2023/08/24 06:00:10;;;;;;;10.82;6.65;;;;;;;24.10;100.00;96280.16;6214065;23;20004;-80
2023/08/24 06:02:41;;;;;;;12.35;6.82;;;;;;;24.03;100.00;96284.91;6213984;23;20004;-82
2023/08/24 06:05:07;;;;;;;8.93;6.65;;;;;;;24.43;100.00;96267.81;6189914;23;20058;-80
2023/08/24 06:07:33;;;;;;;9.98;5.50;;;;;;;24.53;100.00;96275.22;6214024;23;20614;-80
2023/08/24 06:09:59;;;;;;;7.88;6.45;;;;;;;24.74;100.00;96268.25;6214474;23;20055;-82
2023/08/24 06:12:25;;;;;;;8.65;6.10;;;;;;;24.97;100.00;96267.22;6188352;23;20030;-81
2023/08/24 06:14:50;;;;;;;10.13;6.15;;;;;;;24.91;100.00;96263.63;6190241;23;20004;-82
2023/08/24 06:17:16;;;;;;;10.57;6.32;;;;;;;25.05;100.00;96264.09;6213547;23;20004;-81
2023/08/24 06:19:42;;;;;;;10.57;6.28;;;;;;;25.27;100.00;96256.03;6214281;23;20066;-82
2023/08/24 06:22:07;;;;;;;10.05;5.90;;;;;;;25.80;100.00;96255.28;6214994;23;20872;-82
2023/08/24 06:24:33;;;;;;;7.03;5.43;;;;;;;26.07;100.00;96257.13;6216708;23;20000;-83
2023/08/24 06:27:00;;;;;;;9.82;6.10;;;;;;;26.35;100.00;96253.31;6214930;23;20007;-82
2023/08/24 06:29:29;;;;;;;11.48;6.53;;;;;;;26.34;100.00;96251.69;6190358;23;20024;-82
2023/08/24 06:31:55;;;;;;;13.75;7.53;;;;;;;27.49;100.00;96254.44;6187711;23;20012;-82
2023/08/24 06:34:20;;;;;;;9.43;6.00;;;;;;;28.21;100.00;96243.78;6188559;23;20008;-82
2023/08/24 06:36:47;;;;;;;10.65;5.78;;;;;;;28.97;100.00;96250.13;6239662;22;20016;-82
2023/08/24 06:39:13;;;;;;;10.93;5.70;;;;;;;29.37;93.80;96249.19;6213508;23;20058;-82
2023/08/24 06:41:38;;;;;;;8.70;5.05;;;;;;;28.41;99.78;96251.09;6187410;23;20020;-82
2023/08/24 06:44:06;;;;;;;11.20;4.78;;;;;;;28.52;100.00;96246.47;6189172;23;20016;-82
2023/08/24 06:46:34;;;;;;;7.72;4.78;;;;;;;28.63;100.00;96245.34;6189779;23;20095;-82
2023/08/24 06:49:00;;;;;;;10.88;5.03;;;;;;;27.95;100.00;96259.16;6189703;23;20383;-80
2023/08/24 06:51:26;;;;;;;10.77;5.28;;;;;;;28.94;100.00;96253.38;6188811;23;20000;-80
2023/08/24 06:53:52;;;;;;;12.02;4.97;;;;;;;28.29;100.00;96255.94;6188668;23;20031;-80
2023/08/24 06:56:18;;;;;;;7.85;5.60;;;;;;;27.80;100.00;96262.69;6214031;23;19996;-80
2023/08/24 06:58:45;;;;;;;8.95;4.80;;;;;;;28.13;100.00;96252.41;6190400;23;20000;-80
2023/08/24 07:01:11;;;;;;;7.25;4.82;;;;;;;28.17;100.00;96248.91;6215981;23;20455;-80
2023/08/24 07:03:37;;;;;;;7.03;4.43;;;;;;;28.39;100.00;96245.94;6191886;23;20015;-81
2023/08/24 07:06:05;;;;;;;7.03;4.82;;;;;;;28.60;100.00;96248.59;6216269;23;20028;-80
2023/08/24 07:08:31;;;;;;;10.45;5.40;;;;;;;28.89;100.00;96254.22;6191275;23;20380;-80
2023/08/24 07:10:56;;;;;;;7.75;4.45;;;;;;;30.54;91.78;96250.28;6190438;23;20008;-80
2023/08/24 07:13:22;;;;;;;7.13;4.40;;;;;;;30.76;89.28;96258.78;6190276;23;20000;-80
2023/08/24 07:15:47;;;;;;;6.93;4.38;;;;;;;30.30;90.93;96255.66;6216210;23;20027;-80
2023/08/24 07:18:13;;;;;;;6.82;4.03;;;;;;;30.47;91.43;96263.38;6192016;23;20062;-81
2023/08/24 07:20:38;;;;;;;8.90;4.72;;;;;;;29.64;96.48;96275.88;6191439;23;20004;-80
2023/08/24 07:23:04;;;;;;;6.13;4.28;;;;;;;30.03;89.89;96285.94;6217334;23;20000;-79
2023/08/24 07:25:31;;;;;;;9.68;3.88;;;;;;;30.32;83.65;96274.38;6189828;23;20073;-80
2023/08/24 07:27:58;;;;;;;7.80;3.92;;;;;;;30.99;83.06;96286.25;6189560;23;20448;-81
2023/08/24 07:30:26;;;;;;;7.53;3.63;;;;;;;30.88;77.50;96290.94;6188761;23;20003;-80
2023/08/24 07:32:53;;;;;;;8.38;4.22;;;;;;;31.30;73.84;96299.47;6216122;23;20087;-81
2023/08/24 07:35:20;;;;;;;8.55;4.07;;;;;;;31.21;80.05;96305.53;6191239;23;20007;-80
2023/08/24 07:37:49;;;;;;;8.05;3.72;;;;;;;30.96;88.43;96300.41;6216085;23;20091;-81
2023/08/24 07:40:15;;;;;;;8.63;4.00;;;;;;;30.80;91.45;96298.94;6216315;23;20004;-81
2023/08/24 07:42:46;;;;;;;7.28;3.85;;;;;;;31.10;92.94;96287.75;6214670;23;20026;-80
2023/08/24 07:45:11;;;;;;;10.80;4.75;;;;;;;30.91;89.87;96292.28;6215218;23;20014;-81
2023/08/24 07:47:37;;;;;;;10.35;4.43;;;;;;;30.60;76.37;96298.00;6190640;23;20024;-80
2023/08/24 07:50:08;;;;;;;11.32;5.38;;;;;;;31.18;72.51;96297.16;6191728;23;20004;-80
2023/08/24 07:52:34;;;;;;;8.30;4.00;;;;;;;32.90;61.95;96283.22;6191422;23;20083;-81
2023/08/24 07:55:03;;;;;;;7.70;3.47;;;;;;;33.15;69.25;96281.97;6190596;23;20042;-80
2023/08/24 07:57:28;;;;;;;7.28;4.07;;;;;;;33.98;63.85;96288.13;6214184;23;20012;-80
2023/08/24 07:59:54;;;;;;;6.22;3.88;;;;;;;33.39;68.75;96289.94;6190314;23;20011;-81
2023/08/24 08:02:28;;;;;;;6.95;3.83;;;;;;;32.83;75.05;96286.34;6215228;23;20476;-80
2023/08/24 08:04:59;;;;;;;8.13;3.70;;;;;;;33.58;76.42;96279.75;6191250;23;20015;-80
2023/08/24 08:07:26;;;;;;;8.77;4.60;;;;;;;33.23;77.16;96265.69;6190824;23;20447;-80
2023/08/24 08:09:58;;;;;;;10.57;6.22;;;;;;;33.72;74.69;96268.81;6190304;23;20034;-80
2023/08/24 08:12:23;;;;;;;7.20;4.90;;;;;;;33.88;68.45;96264.63;6189962;23;20003;-80
2023/08/24 08:14:49;;;;;;;9.10;4.32;;;;;;;33.82;71.91;96257.66;6215467;23;20031;-81
2023/08/24 08:17:15;;;;;;;8.35;3.70;;;;;;;33.76;70.99;96253.44;6190423;23;20012;-80
2023/08/24 08:19:43;;;;;;;6.47;3.72;;;;;;;32.85;78.03;96265.88;6188919;23;20004;-81
2023/08/24 08:22:08;;;;;;;7.00;3.85;;;;;;;32.32;83.32;96271.69;6189309;23;20000;-82
2023/08/24 08:24:34;;;;;;;7.13;4.80;;;;;;;32.42;83.27;96262.56;6190435;23;20008;-81
2023/08/24 08:26:59;;;;;;;10.77;4.25;;;;;;;32.41;89.10;96255.47;6190680;23;20065;-81
2023/08/24 08:29:25;;;;;;;8.73;3.90;;;;;;;33.90;74.60;96243.28;6214264;23;20066;-81
2023/08/24 08:31:51;;;;;;;5.90;3.58;;;;;;;33.87;74.48;96252.09;6188930;23;20006;-81
2023/08/24 08:34:22;;;;;;;7.63;4.22;;;;;;;34.95;65.48;96248.31;6190903;23;20062;-81
2023/08/24 08:36:48;;;;;;;7.30;4.57;;;;;;;34.80;63.80;96245.19;6190940;23;20015;-82
2023/08/24 08:39:13;;;;;;;8.23;4.32;;;;;;;34.89;64.77;96252.31;6215865;23;20000;-81
2023/08/24 08:42:01;;;;;;;7.53;3.58;;;;;;;36.17;55.80;96248.56;6189602;23;20340;-81
2023/08/24 08:44:31;;;;;;;8.43;4.35;;;;;;;37.04;54.95;96251.13;6189802;23;20016;-80
2023/08/24 08:46:57;;;;;;;7.47;3.97;;;;;;;37.35;52.44;96255.50;6191212;23;20008;-80
2023/08/24 08:49:23;;;;;;;8.55;4.15;;;;;;;37.88;50.97;96267.75;6191635;23;20004;-80
2023/08/24 08:51:51;;;;;;;10.88;3.85;;;;;;;37.79;47.24;96264.28;6190523;23;20004;-81
2023/08/24 08:54:16;;;;;;;7.32;3.97;;;;;;;35.40;53.74;96272.75;6190275;23;20000;-80
2023/08/24 08:56:42;;;;;;;8.70;4.10;;;;;;;35.07;56.78;96263.31;6241916;23;20075;-80
2023/08/24 08:59:11;;;;;;;7.10;3.67;;;;;;;35.12;57.06;96258.53;6241851;23;20004;-80
2023/08/24 09:01:37;;;;;;;6.13;3.85;;;;;;;33.00;65.04;96266.72;6215224;23;20321;-80
2023/08/24 09:04:13;;;;;;;6.97;4.10;;;;;;;34.45;63.29;96258.63;6216942;23;20479;-80
2023/08/24 09:06:39;;;;;;;8.43;3.50;;;;;;;34.88;56.99;96261.63;6190680;23;20092;-80
2023/08/24 09:09:25;;;;;;;9.15;4.20;;;;;;;35.76;57.21;96260.00;6190158;23;20030;-80
2023/08/24 09:11:51;;;;;;;10.60;4.22;;;;;;;35.84;58.45;96265.44;6189298;23;20069;-80
2023/08/24 09:14:16;;;;;;;6.15;3.78;;;;;;;36.67;50.98;96263.66;6189160;23;20007;-81
2023/08/24 09:16:42;;;;;;;7.82;4.22;;;;;;;37.53;49.69;96259.78;6189827;23;20000;-80
2023/08/24 09:19:11;;;;;;;6.45;4.53;;;;;;;37.06;51.04;96259.84;6190101;23;20004;-81
2023/08/24 09:21:39;;;;;;;10.77;4.60;;;;;;;37.10;46.55;96258.03;6189966;23;20011;-81
2023/08/24 09:24:06;;;;;;;9.27;3.90;;;;;;;38.15;44.92;96250.75;6190279;23;20004;-81
2023/08/24 09:26:34;;;;;;;7.75;4.30;;;;;;;37.39;46.73;96240.81;6215535;23;20016;-80
2023/08/24 09:29:10;;;;;;;6.60;3.75;;;;;;;37.92;46.53;96253.06;6189228;23;20012;-81
2023/08/24 09:31:39;;;;;;;6.00;3.90;;;;;;;37.95;46.50;96249.63;6213917;23;20004;-81
2023/08/24 09:34:06;;;;;;;7.05;3.70;;;;;;;38.83;42.76;96255.94;6189278;23;20379;-81
2023/08/24 09:36:35;;;;;;;9.90;4.40;;;;;;;38.04;43.89;96251.53;6215133;23;20078;-81
2023/08/24 09:39:05;;;;;;;8.52;3.60;;;;;;;37.17;46.90;96257.53;6215021;23;20106;-81
2023/08/24 09:41:41;;;;;;;7.97;4.15;;;;;;;38.47;45.71;96250.31;6189145;23;20086;-81
2023/08/24 09:44:08;;;;;;;7.88;3.70;;;;;;;39.25;41.63;96243.94;6188837;23;20008;-81
2023/08/24 09:46:38;;;;;;;9.00;3.60;;;;;;;39.41;40.70;96244.06;6214096;23;20012;-81
2023/08/24 09:49:11;;;;;;;6.75;3.80;;;;;;;40.13;39.29;96236.00;6214674;23;20010;-80
2023/08/24 09:51:39;;;;;;;8.85;4.20;;;;;;;38.59;40.34;96229.16;6213954;23;20487;-80
2023/08/24 09:54:08;;;;;;;8.63;3.80;;;;;;;39.21;41.19;96226.53;6189715;23;20075;-80
2023/08/24 09:56:37;;;;;;;5.30;3.47;;;;;;;39.32;42.18;96220.22;6189572;23;20000;-80
2023/08/24 09:59:09;;;;;;;7.38;3.70;;;;;;;40.23;41.60;96219.00;6214362;23;20520;-81
2023/08/24 10:01:37;;;;;;;7.32;4.32;;;;;;;39.60;40.37;96212.03;6186799;23;20004;-81
2023/08/24 10:04:05;;;;;;;8.15;5.00;;;;;;;39.40;41.26;96206.69;6186799;23;20016;-80
2023/08/24 10:06:32;;;;;;;6.10;4.32;;;;;;;38.08;43.26;96198.34;6212453;23;20008;-80
2023/08/24 10:09:04;;;;;;;9.02;4.40;;;;;;;37.60;46.69;96188.72;6189522;23;20004;-80
2023/08/24 10:11:30;;;;;;;;;;;;;;;37.82;44.69;96186.75;6190145;23;20011;-80
2023/08/24 10:14:00;;;;;;;7.90;4.03;;;;;;;38.89;42.86;96179.53;6189337;23;19911;-80
2023/08/24 10:16:30;;;;;;;9.52;4.75;;;;;;;39.68;42.41;96176.47;6186446;23;20028;-80
2023/08/24 10:18:57;;;;;;;9.27;4.43;;;;;;;38.59;44.38;96171.47;6187487;23;20094;-81
2023/08/24 10:21:26;;;;;;;5.93;4.30;;;;;;;38.03;44.91;96173.03;6213298;23;20015;-80
2023/08/24 10:23:54;;;;;;;6.30;3.42;;;;;;;38.93;45.31;96166.69;6189844;23;20008;-80
2023/08/24 10:26:21;;;;;;;7.75;4.15;;;;;;;39.62;43.44;96169.59;6189401;23;20311;-80
2023/08/24 10:28:49;;;;;;;6.30;4.07;;;;;;;38.32;44.21;96155.59;6188735;23;20007;-80
2023/08/24 10:31:15;;;;;;;9.27;4.40;;;;;;;37.97;45.70;96156.78;6188408;23;20015;-80
2023/08/24 10:33:42;;;;;;;9.20;4.53;;;;;;;38.14;45.07;96152.25;6189019;23;20004;-80
2023/08/24 10:36:08;;;;;;;8.10;4.03;;;;;;;38.36;45.45;96153.78;6214400;23;20012;-79
2023/08/24 10:38:40;;;;;;;8.20;4.30;;;;;;;37.89;47.32;96145.84;6189469;23;20453;-78
2023/08/24 10:41:07;;;;;;;6.70;3.90;;;;;;;39.30;45.29;96139.97;6189656;23;20345;-79
2023/08/24 10:43:37;;;;;;;10.75;4.45;;;;;;;39.26;43.42;96132.75;6239154;23;20042;-80
2023/08/24 10:46:04;;;;;;;8.00;4.50;;;;;;;39.26;42.83;96128.06;6189093;23;20004;-79
2023/08/24 10:48:50;;;;;;;6.30;4.25;;;;;;;39.30;42.24;96128.16;6189150;23;20016;-80
2023/08/24 10:51:17;;;;;;;9.05;4.07;;;;;;;40.03;41.83;96127.13;6189136;23;20004;-79
2023/08/24 10:53:56;;;;;;;8.48;4.32;;;;;;;39.84;42.24;96119.53;6214865;23;20447;-79
2023/08/24 10:56:34;;;;;;;5.80;3.85;;;;;;;39.97;42.10;96118.31;6214992;23;20004;-79
2023/08/24 10:59:14;;;;;;;12.27;5.22;;;;;;;38.77;42.90;96119.00;6187367;23;20008;-79
2023/08/24 11:01:41;;;;;;;7.35;4.55;;;;;;;38.14;43.97;96103.63;6214090;23;20344;-79
2023/08/24 11:04:07;;;;;;;8.35;3.92;;;;;;;38.92;43.53;96107.38;6190237;23;20460;-79
2023/08/24 11:06:57;;;;;;;6.53;4.60;;;;;;;38.62;44.17;96104.03;6214182;23;20015;-79
2023/08/24 11:09:23;;;;;;;10.18;4.15;;;;;;;39.27;42.57;96104.09;6189557;23;20012;-79
2023/08/24 11:12:00;;;;;;;5.32;3.90;;;;;;;39.99;42.69;96099.50;6188335;23;20010;-80
2023/08/24 11:14:26;;;;;;;6.32;3.78;;;;;;;40.06;41.59;96094.16;6189008;23;20011;-79
2023/08/24 11:16:52;;;;;;;9.00;3.97;;;;;;;38.86;44.43;96097.75;6214318;23;20008;-80
2023/08/24 11:19:18;;;;;;;8.23;4.57;;;;;;;37.88;46.08;96092.09;6213425;23;20345;-80
2023/08/24 11:21:45;;;;;;;8.80;4.55;;;;;;;37.87;47.33;96085.00;6212573;23;20000;-80
2023/08/24 11:24:16;;;;;;;6.43;4.00;;;;;;;37.88;47.05;96076.41;6211010;23;20039;-79
2023/08/24 11:26:47;;;;;;;5.63;4.07;;;;;;;38.51;45.34;96073.47;6188618;23;20008;-80